Time;durP1;ratioP1;P1;durP2;ratioP2;P2;SDS_P1;SDS_P2;PMS_P1;PMS_P2;Temp;Humidity;BMP_temperature;BMP_pressure;BME280_temperature;BME280_humidity;BME280_pressure;Samples;Min_cycle;Max_cycle;Signal;HPM_P1;HPM_P2
2023/09/16 00:01:12;;;;;;;246.90;84.60;;;;;;;;;;5024610;28;20414;-46
2023/09/16 00:03:38;;;;;;;245.37;82.53;;;;;;;;;;5031323;28;20444;-47
2023/09/16 00:06:05;;;;;;;247.03;84.83;;;;;;;;;;5023042;28;20422;-47
2023/09/16 00:08:33;;;;;;;246.73;86.00;;;;;;;;;;5023744;28;20427;-47
2023/09/16 00:10:59;;;;;;;246.67;83.97;;;;;;;;;;5019660;28;20407;-47
2023/09/16 00:13:25;;;;;;;246.77;83.10;;;;;;;;;;5019770;28;20438;-46
2023/09/16 00:15:51;;;;;;;247.13;84.50;;;;;;;;;;5027730;28;20491;-47
2023/09/16 00:18:18;;;;;;;249.27;86.17;;;;;;;;;;5024876;28;20994;-46
2023/09/16 00:20:44;;;;;;;249.17;84.70;;;;;;;;;;5023005;28;20509;-47
2023/09/16 00:23:10;;;;;;;246.20;83.37;;;;;;;;;;5026923;28;20544;-46
2023/09/16 00:25:36;;;;;;;249.37;86.53;;;;;;;;;;5019372;28;20411;-47
2023/09/16 00:28:06;;;;;;;245.63;82.00;;;;;;;;;;5022537;28;20550;-47
2023/09/16 00:30:32;;;;;;;249.90;85.83;;;;;;;;;;5023859;28;20909;-47
2023/09/16 00:32:58;;;;;;;246.73;84.53;;;;;;;;;;5030444;28;20423;-47
2023/09/16 00:35:24;;;;;;;246.37;83.13;;;;;;;;;;5031173;28;20789;-47
2023/09/16 00:37:50;;;;;;;247.67;84.83;;;;;;;;;;5022267;28;20823;-47
2023/09/16 00:40:16;;;;;;;246.80;82.87;;;;;;;;;;5045628;22;20983;-46
2023/09/16 00:42:42;;;;;;;243.37;80.87;;;;;;;;;;5003166;28;20911;-45
2023/09/16 00:45:10;;;;;;;244.90;81.20;;;;;;;;;;5003249;28;20499;-45
2023/09/16 00:47:37;;;;;;;240.77;80.23;;;;;;;;;;5003087;28;20632;-45
2023/09/16 00:50:06;;;;;;;248.40;86.20;;;;;;;;;;5011264;28;20809;-45
2023/09/16 00:52:32;;;;;;;245.07;80.43;;;;;;;;;;5011324;28;20463;-46
2023/09/16 00:54:58;;;;;;;244.03;80.83;;;;;;;;;;5013250;28;20584;-45
2023/09/16 00:57:24;;;;;;;248.33;86.27;;;;;;;;;;5014503;28;20412;-45
2023/09/16 00:59:50;;;;;;;247.97;84.63;;;;;;;;;;5011465;28;20460;-45
2023/09/16 01:02:17;;;;;;;246.77;84.80;;;;;;;;;;5014383;28;20505;-45
2023/09/16 01:04:44;;;;;;;246.80;84.53;;;;;;;;;;5013899;28;20407;-45
2023/09/16 01:07:11;;;;;;;250.60;85.67;;;;;;;;;;5014164;28;20460;-47
2023/09/16 01:09:38;;;;;;;247.77;84.17;;;;;;;;;;5017250;28;20439;-45
2023/09/16 01:12:05;;;;;;;247.57;86.57;;;;;;;;;;5013172;28;20403;-46
2023/09/16 01:14:31;;;;;;;247.33;86.17;;;;;;;;;;5014392;28;20435;-46
2023/09/16 01:16:59;;;;;;;244.30;82.10;;;;;;;;;;5014257;28;20511;-45
2023/09/16 01:19:31;;;;;;;240.63;84.67;;;;;;;;;;5014404;28;20529;-45
2023/09/16 01:21:57;;;;;;;247.57;86.13;;;;;;;;;;5014374;28;20469;-45
2023/09/16 01:24:23;;;;;;;247.60;85.70;;;;;;;;;;5014323;28;20811;-45
2023/09/16 01:26:49;;;;;;;248.03;87.23;;;;;;;;;;5013957;28;20537;-45
2023/09/16 01:29:16;;;;;;;246.07;83.10;;;;;;;;;;5013992;28;20466;-45
2023/09/16 01:31:46;;;;;;;246.27;85.17;;;;;;;;;;5014088;28;20418;-45
2023/09/16 01:34:18;;;;;;;246.93;85.20;;;;;;;;;;5014163;28;20430;-45
2023/09/16 01:36:47;;;;;;;232.53;77.87;;;;;;;;;;5013877;28;20437;-45
2023/09/16 01:39:15;;;;;;;248.53;88.37;;;;;;;;;;5013560;28;20453;-45
2023/09/16 01:41:42;;;;;;;245.93;84.33;;;;;;;;;;5013763;28;20496;-45
2023/09/16 01:44:08;;;;;;;249.00;85.10;;;;;;;;;;5014125;28;20429;-45
2023/09/16 01:46:34;;;;;;;245.77;83.77;;;;;;;;;;5013823;28;20847;-45
2023/09/16 01:49:00;;;;;;;247.20;86.13;;;;;;;;;;5013666;28;20491;-45
2023/09/16 01:51:26;;;;;;;245.30;83.57;;;;;;;;;;5013935;28;20957;-45
2023/09/16 01:53:52;;;;;;;247.27;84.80;;;;;;;;;;5013421;28;20796;-48
2023/09/16 01:56:18;;;;;;;243.87;83.93;;;;;;;;;;5013747;28;20818;-45
2023/09/16 01:58:44;;;;;;;245.47;82.93;;;;;;;;;;5013348;28;20842;-45
2023/09/16 02:01:11;;;;;;;245.33;84.73;;;;;;;;;;5013646;28;20426;-45
2023/09/16 02:03:37;;;;;;;246.07;84.73;;;;;;;;;;5013525;28;20421;-45
2023/09/16 02:06:05;;;;;;;244.30;82.03;;;;;;;;;;5012298;28;20914;-45
2023/09/16 02:08:31;;;;;;;248.70;86.83;;;;;;;;;;5012970;28;20799;-45
2023/09/16 02:10:57;;;;;;;247.23;87.17;;;;;;;;;;5013396;28;21458;-46
2023/09/16 02:13:23;;;;;;;244.87;85.57;;;;;;;;;;5013401;28;20429;-45
2023/09/16 02:15:49;;;;;;;246.27;86.30;;;;;;;;;;5013207;28;20410;-45
2023/09/16 02:18:15;;;;;;;245.37;82.87;;;;;;;;;;5012972;28;20467;-45
2023/09/16 02:20:41;;;;;;;248.60;87.43;;;;;;;;;;5013144;28;20426;-45
2023/09/16 02:23:07;;;;;;;245.17;86.30;;;;;;;;;;5013197;28;20424;-45
2023/09/16 02:25:33;;;;;;;245.27;83.50;;;;;;;;;;5013108;28;20423;-45
2023/09/16 02:27:59;;;;;;;246.07;85.03;;;;;;;;;;5012842;28;20454;-45
2023/09/16 02:30:25;;;;;;;244.53;86.13;;;;;;;;;;5008071;28;20433;-45
2023/09/16 02:32:52;;;;;;;248.03;87.97;;;;;;;;;;5012859;28;20478;-45
2023/09/16 02:35:18;;;;;;;246.73;87.90;;;;;;;;;;5013023;28;20410;-46
2023/09/16 02:37:44;;;;;;;248.07;86.80;;;;;;;;;;5012552;28;20417;-45
2023/09/16 02:40:10;;;;;;;245.60;85.63;;;;;;;;;;5012813;28;20462;-46
2023/09/16 02:42:36;;;;;;;246.27;84.47;;;;;;;;;;5012914;28;20447;-45
2023/09/16 02:45:02;;;;;;;245.97;86.60;;;;;;;;;;5012714;28;20449;-45
2023/09/16 02:47:29;;;;;;;244.87;83.43;;;;;;;;;;5012595;28;20458;-45
2023/09/16 02:49:55;;;;;;;245.80;84.10;;;;;;;;;;5012649;28;20489;-46
2023/09/16 02:52:21;;;;;;;247.33;87.20;;;;;;;;;;5012546;28;20512;-45
2023/09/16 02:54:47;;;;;;;245.53;84.50;;;;;;;;;;5012798;28;20425;-45
2023/09/16 02:57:13;;;;;;;249.77;90.73;;;;;;;;;;5012659;28;20422;-45
2023/09/16 02:59:38;;;;;;;247.73;84.93;;;;;;;;;;5012710;28;20430;-45
2023/09/16 03:02:04;;;;;;;242.53;80.37;;;;;;;;;;5012542;28;20505;-45
2023/09/16 03:04:30;;;;;;;244.60;82.83;;;;;;;;;;5012473;28;20418;-45
2023/09/16 03:06:56;;;;;;;248.60;88.03;;;;;;;;;;5011898;28;20458;-45
2023/09/16 03:09:22;;;;;;;249.07;89.27;;;;;;;;;;5011093;28;20478;-46
2023/09/16 03:11:48;;;;;;;245.23;83.50;;;;;;;;;;5012465;28;20405;-45
2023/09/16 03:14:14;;;;;;;245.03;82.57;;;;;;;;;;5012382;28;20464;-45
2023/09/16 03:16:40;;;;;;;245.03;83.10;;;;;;;;;;5012044;28;20418;-45
2023/09/16 03:19:08;;;;;;;247.17;85.80;;;;;;;;;;5012071;28;20917;-46
2023/09/16 03:21:34;;;;;;;247.07;88.10;;;;;;;;;;5012147;28;20858;-45
2023/09/16 03:24:00;;;;;;;242.50;80.37;;;;;;;;;;5012197;28;20986;-45
2023/09/16 03:26:26;;;;;;;245.47;83.67;;;;;;;;;;5012256;28;20489;-45
2023/09/16 03:28:54;;;;;;;246.60;84.43;;;;;;;;;;5011791;28;20428;-45
2023/09/16 03:31:20;;;;;;;242.77;82.27;;;;;;;;;;5012246;28;20407;-45
2023/09/16 03:33:46;;;;;;;246.93;86.13;;;;;;;;;;5011845;28;20419;-45
2023/09/16 03:36:12;;;;;;;245.77;83.27;;;;;;;;;;5012027;28;20512;-45
2023/09/16 03:38:45;;;;;;;244.23;83.07;;;;;;;;;;5011824;28;20772;-45
2023/09/16 03:41:11;;;;;;;245.17;85.17;;;;;;;;;;5012093;28;20436;-45
2023/09/16 03:43:37;;;;;;;245.07;83.07;;;;;;;;;;5012038;28;20888;-45
2023/09/16 03:46:03;;;;;;;244.73;82.03;;;;;;;;;;5011819;28;20902;-45
2023/09/16 03:48:30;;;;;;;246.40;84.77;;;;;;;;;;5011559;28;20967;-45
2023/09/16 03:50:56;;;;;;;243.87;85.27;;;;;;;;;;5012094;28;20423;-45
2023/09/16 03:53:25;;;;;;;248.03;87.50;;;;;;;;;;5011954;28;20425;-45
2023/09/16 03:55:51;;;;;;;245.17;84.27;;;;;;;;;;5011748;28;20440;-46
2023/09/16 03:58:17;;;;;;;244.90;82.97;;;;;;;;;;5011512;28;20425;-45
2023/09/16 04:00:43;;;;;;;245.23;83.90;;;;;;;;;;5011736;28;20784;-45
2023/09/16 04:03:11;;;;;;;246.40;84.77;;;;;;;;;;5011614;28;20446;-45
2023/09/16 04:05:37;;;;;;;248.73;87.53;;;;;;;;;;5011670;28;20438;-45
2023/09/16 04:08:03;;;;;;;243.57;83.57;;;;;;;;;;5011456;28;20941;-45
2023/09/16 04:10:29;;;;;;;247.50;85.43;;;;;;;;;;5011773;28;20492;-45
2023/09/16 04:12:55;;;;;;;247.47;88.80;;;;;;;;;;5011644;28;20887;-45
2023/09/16 04:15:20;;;;;;;246.60;84.87;;;;;;;;;;5011631;28;20421;-45
2023/09/16 04:17:46;;;;;;;247.70;86.10;;;;;;;;;;5011282;28;20496;-46
2023/09/16 04:20:14;;;;;;;245.27;84.83;;;;;;;;;;5011623;28;20437;-45
2023/09/16 04:22:40;;;;;;;247.20;87.87;;;;;;;;;;5011588;28;20930;-45
2023/09/16 04:25:06;;;;;;;245.47;85.93;;;;;;;;;;5011589;28;20484;-46
2023/09/16 04:27:32;;;;;;;245.77;85.53;;;;;;;;;;5011229;28;20814;-46
2023/09/16 04:29:58;;;;;;;243.13;82.00;;;;;;;;;;5013527;28;20442;-45
2023/09/16 04:32:24;;;;;;;245.50;86.23;;;;;;;;;;5015145;28;20504;-45
2023/09/16 04:34:49;;;;;;;247.53;85.97;;;;;;;;;;5015249;28;20413;-45
2023/09/16 04:37:16;;;;;;;249.57;88.00;;;;;;;;;;5014882;28;20416;-45
2023/09/16 04:39:42;;;;;;;246.50;85.80;;;;;;;;;;5015002;28;20445;-45
2023/09/16 04:42:08;;;;;;;250.17;90.93;;;;;;;;;;5015142;28;20475;-45
2023/09/16 04:44:38;;;;;;;246.40;84.17;;;;;;;;;;5015049;28;20416;-45
2023/09/16 04:47:05;;;;;;;248.87;87.87;;;;;;;;;;5006763;28;20965;-45
2023/09/16 04:49:31;;;;;;;245.37;86.13;;;;;;;;;;5015080;28;20490;-45
2023/09/16 04:51:57;;;;;;;245.53;86.70;;;;;;;;;;5014907;28;20784;-45
2023/09/16 04:54:23;;;;;;;245.87;85.07;;;;;;;;;;5014948;28;20810;-45
2023/09/16 04:56:49;;;;;;;249.90;89.80;;;;;;;;;;5014809;28;20424;-45
2023/09/16 04:59:15;;;;;;;245.20;83.50;;;;;;;;;;5014516;28;20435;-45
2023/09/16 05:01:41;;;;;;;246.47;84.37;;;;;;;;;;5014707;28;20411;-45
2023/09/16 05:04:07;;;;;;;248.73;89.30;;;;;;;;;;5014694;28;20963;-45
2023/09/16 05:06:33;;;;;;;247.27;87.40;;;;;;;;;;5014648;28;20955;-45
2023/09/16 05:08:59;;;;;;;246.70;87.60;;;;;;;;;;5014303;28;20794;-46
2023/09/16 05:11:25;;;;;;;246.13;86.20;;;;;;;;;;5014596;28;20503;-46
2023/09/16 05:13:51;;;;;;;253.67;93.57;;;;;;;;;;5013099;28;20942;-45
2023/09/16 05:16:17;;;;;;;247.07;87.23;;;;;;;;;;5012246;28;20434;-46
2023/09/16 05:18:44;;;;;;;244.37;83.03;;;;;;;;;;5014188;28;20516;-45
2023/09/16 05:21:10;;;;;;;246.63;86.07;;;;;;;;;;5014246;28;20931;-45
2023/09/16 05:23:37;;;;;;;245.87;84.87;;;;;;;;;;5014362;28;20968;-45
2023/09/16 05:26:05;;;;;;;243.93;81.87;;;;;;;;;;5006187;28;20406;-45
2023/09/16 05:28:30;;;;;;;246.60;84.40;;;;;;;;;;5014002;28;20544;-46
2023/09/16 05:30:57;;;;;;;245.17;82.87;;;;;;;;;;5014240;28;20529;-45
2023/09/16 05:33:23;;;;;;;245.70;84.70;;;;;;;;;;5014173;28;20810;-46
2023/09/16 05:35:50;;;;;;;245.33;84.90;;;;;;;;;;5014007;28;20425;-45
2023/09/16 05:38:16;;;;;;;249.57;87.40;;;;;;;;;;5013609;28;20489;-45
2023/09/16 05:40:41;;;;;;;247.90;88.67;;;;;;;;;;5013815;28;20909;-45
2023/09/16 05:43:07;;;;;;;246.73;86.27;;;;;;;;;;5013917;28;20423;-45
2023/09/16 05:45:33;;;;;;;245.47;84.63;;;;;;;;;;5013892;28;20504;-45
2023/09/16 05:48:04;;;;;;;243.73;81.53;;;;;;;;;;5013488;28;20469;-45
2023/09/16 05:50:30;;;;;;;245.13;84.07;;;;;;;;;;5013967;28;20513;-45
2023/09/16 05:52:56;;;;;;;248.20;90.77;;;;;;;;;;5013590;28;21003;-45
2023/09/16 05:55:22;;;;;;;246.87;86.60;;;;;;;;;;5013674;28;20466;-45
2023/09/16 05:57:49;;;;;;;245.50;85.33;;;;;;;;;;5013321;28;20786;-45
2023/09/16 06:00:15;;;;;;;247.73;88.80;;;;;;;;;;5013652;28;20448;-45
2023/09/16 06:02:41;;;;;;;246.27;86.90;;;;;;;;;;5013493;28;20770;-45
2023/09/16 06:05:08;;;;;;;249.43;88.93;;;;;;;;;;5013476;28;20420;-45
2023/09/16 06:07:34;;;;;;;249.97;92.30;;;;;;;;;;5013019;28;20523;-45
2023/09/16 06:10:00;;;;;;;248.10;89.77;;;;;;;;;;5013355;28;20447;-46
2023/09/16 06:12:26;;;;;;;243.43;84.90;;;;;;;;;;5011106;28;20427;-45
2023/09/16 06:14:52;;;;;;;246.63;86.23;;;;;;;;;;5012765;28;20429;-45
2023/09/16 06:17:19;;;;;;;248.50;90.90;;;;;;;;;;5018363;28;20417;-45
2023/09/16 06:19:45;;;;;;;250.03;92.07;;;;;;;;;;5015446;28;20434;-45
2023/09/16 06:22:13;;;;;;;245.57;85.43;;;;;;;;;;5013406;28;20770;-45
2023/09/16 06:24:39;;;;;;;246.97;87.33;;;;;;;;;;5013168;28;20424;-45
2023/09/16 06:27:05;;;;;;;248.97;86.60;;;;;;;;;;5010579;28;20933;-45
2023/09/16 06:29:31;;;;;;;249.00;91.17;;;;;;;;;;5012888;28;20444;-45
2023/09/16 06:31:57;;;;;;;249.03;89.83;;;;;;;;;;5012843;28;20434;-45
2023/09/16 06:34:23;;;;;;;249.70;91.27;;;;;;;;;;5012869;28;20568;-45
2023/09/16 06:36:49;;;;;;;250.40;92.73;;;;;;;;;;5013109;28;20430;-45
2023/09/16 06:39:15;;;;;;;247.27;87.80;;;;;;;;;;5012600;28;20458;-47
2023/09/16 06:41:42;;;;;;;245.27;85.33;;;;;;;;;;5012830;28;20437;-45
2023/09/16 06:44:08;;;;;;;252.53;94.87;;;;;;;;;;5013093;28;20416;-45
2023/09/16 06:46:34;;;;;;;249.37;90.17;;;;;;;;;;5012699;28;20443;-45
2023/09/16 06:49:00;;;;;;;252.93;96.60;;;;;;;;;;5009739;28;20450;-46
2023/09/16 06:51:26;;;;;;;250.50;94.47;;;;;;;;;;5012454;28;20531;-45
2023/09/16 06:53:52;;;;;;;252.77;94.50;;;;;;;;;;5011807;28;20480;-45
2023/09/16 06:56:18;;;;;;;251.83;96.90;;;;;;;;;;5010180;28;20424;-46
2023/09/16 06:58:44;;;;;;;252.87;97.03;;;;;;;;;;5012161;28;20507;-46
2023/09/16 07:01:10;;;;;;;249.93;93.83;;;;;;;;;;5012494;28;20414;-46
2023/09/16 07:03:36;;;;;;;251.23;94.47;;;;;;;;;;5012542;28;20418;-46
2023/09/16 07:06:02;;;;;;;251.90;98.37;;;;;;;;;;5012321;28;20430;-46
2023/09/16 07:08:28;;;;;;;253.67;100.00;;;;;;;;;;5012129;28;20468;-47
2023/09/16 07:10:57;;;;;;;255.20;101.20;;;;;;;;;;5012509;28;20902;-47
2023/09/16 07:13:23;;;;;;;249.63;95.13;;;;;;;;;;5012361;28;20419;-46
2023/09/16 07:18:26;;;;;;;69.17;64.47;;;;;;;;;;5640052;23;20495;-47
2023/09/16 07:20:52;;;;;;;62.07;58.37;;;;;;;;;;4987738;28;20812;-46
2023/09/16 07:23:18;;;;;;;61.20;57.57;;;;;;;;;;4992096;28;20406;-45
2023/09/16 07:25:54;;;;;;;60.70;57.30;;;;;;;;;;4991046;28;20412;-46
2023/09/16 07:28:20;;;;;;;72.13;67.80;;;;;;;;;;4987764;28;20469;-45
2023/09/16 07:30:46;;;;;;;63.23;59.57;;;;;;;;;;4979710;28;20448;-45
2023/09/16 07:33:12;;;;;;;57.63;54.27;;;;;;;;;;4977495;28;20866;-46
2023/09/16 07:35:38;;;;;;;28.93;27.13;;;;;;;;;;4979747;28;20420;-45
2023/09/16 07:38:04;;;;;;;29.80;27.80;;;;;;;;;;4981359;28;20441;-46
2023/09/16 07:40:32;;;;;;;29.57;27.70;;;;;;;;;;4983984;28;20444;-45
2023/09/16 07:42:58;;;;;;;28.43;26.73;;;;;;;;;;4982111;28;20429;-46
2023/09/16 07:45:24;;;;;;;27.97;26.27;;;;;;;;;;4984515;28;20431;-45
2023/09/16 07:47:50;;;;;;;29.20;27.40;;;;;;;;;;4982510;28;20471;-46
2023/09/16 07:50:16;;;;;;;29.50;27.70;;;;;;;;;;4976857;28;20949;-46
2023/09/16 07:52:42;;;;;;;27.93;26.30;;;;;;;;;;4984279;28;20434;-46
2023/09/16 07:55:08;;;;;;;26.93;25.23;;;;;;;;;;4981983;28;20415;-46
2023/09/16 07:57:34;;;;;;;29.63;27.40;;;;;;;;;;4983190;28;20416;-45
2023/09/16 08:00:00;;;;;;;24.73;23.23;;;;;;;;;;4981194;28;20409;-45
2023/09/16 08:02:26;;;;;;;25.80;24.20;;;;;;;;;;4982876;28;20463;-46
2023/09/16 08:04:52;;;;;;;25.77;24.17;;;;;;;;;;4983286;28;20907;-45
2023/09/16 08:07:18;;;;;;;25.63;23.97;;;;;;;;;;4983661;28;21054;-46
2023/09/16 08:09:44;;;;;;;23.57;22.07;;;;;;;;;;4989115;28;20408;-46
2023/09/16 08:12:10;;;;;;;24.73;23.23;;;;;;;;;;4984324;28;20421;-46
2023/09/16 08:14:36;;;;;;;23.70;22.20;;;;;;;;;;4988059;28;20861;-45
2023/09/16 08:17:03;;;;;;;25.57;23.97;;;;;;;;;;4981042;28;20499;-46
2023/09/16 08:19:32;;;;;;;24.43;22.93;;;;;;;;;;4976361;28;20455;-47
2023/09/16 08:21:58;;;;;;;23.80;22.30;;;;;;;;;;4976449;28;20464;-46
2023/09/16 08:24:24;;;;;;;25.17;23.50;;;;;;;;;;4976458;28;20413;-46
2023/09/16 08:26:50;;;;;;;24.57;23.03;;;;;;;;;;4976323;28;20476;-46
2023/09/16 08:29:16;;;;;;;24.17;22.73;;;;;;;;;;4976297;28;20483;-46
2023/09/16 08:31:42;;;;;;;23.97;22.47;;;;;;;;;;4971374;28;20420;-46
2023/09/16 08:34:08;;;;;;;27.40;25.67;;;;;;;;;;4958842;28;20406;-46
2023/09/16 08:36:34;;;;;;;26.23;24.63;;;;;;;;;;4976768;28;20405;-46
2023/09/16 08:39:00;;;;;;;25.57;24.07;;;;;;;;;;4976120;28;20820;-46
2023/09/16 08:41:28;;;;;;;24.93;23.43;;;;;;;;;;4976349;28;20927;-46
2023/09/16 08:43:57;;;;;;;25.73;24.13;;;;;;;;;;4975953;28;20416;-45
2023/09/16 08:46:23;;;;;;;25.10;23.60;;;;;;;;;;4976177;28;20428;-46
2023/09/16 08:48:51;;;;;;;23.07;21.77;;;;;;;;;;4983371;28;20530;-46
2023/09/16 08:51:18;;;;;;;23.20;21.80;;;;;;;;;;4990946;28;20424;-46
2023/09/16 08:53:44;;;;;;;23.37;21.97;;;;;;;;;;4988378;28;20906;-46
2023/09/16 08:56:11;;;;;;;25.07;23.53;;;;;;;;;;4975824;28;20412;-46
2023/09/16 08:58:39;;;;;;;23.63;22.23;;;;;;;;;;4975482;28;20436;-47
2023/09/16 09:01:05;;;;;;;23.37;21.97;;;;;;;;;;4975791;28;20519;-46
2023/09/16 09:03:32;;;;;;;22.93;21.60;;;;;;;;;;4975545;28;20409;-46
2023/09/16 09:05:58;;;;;;;22.50;21.20;;;;;;;;;;4975861;28;20409;-46
2023/09/16 09:08:24;;;;;;;22.43;21.07;;;;;;;;;;4975196;28;20526;-46
2023/09/16 09:10:51;;;;;;;23.47;22.07;;;;;;;;;;4975759;28;20451;-46
2023/09/16 09:13:17;;;;;;;24.70;23.20;;;;;;;;;;4975568;28;20768;-46
2023/09/16 09:15:44;;;;;;;25.00;23.50;;;;;;;;;;4974978;28;20452;-46
2023/09/16 09:20:46;;;;;;;27.17;25.43;;;;;;;;;;5360912;23;20224;-47
2023/09/16 09:23:12;;;;;;;22.60;21.27;;;;;;;;;;4988702;28;20435;-47
2023/09/16 09:25:41;;;;;;;25.40;23.90;;;;;;;;;;4987210;28;20520;-47
2023/09/16 09:28:07;;;;;;;24.07;22.60;;;;;;;;;;4998305;28;20462;-46
2023/09/16 09:30:33;;;;;;;23.30;21.93;;;;;;;;;;4994657;28;20441;-47
2023/09/16 09:32:59;;;;;;;23.20;21.87;;;;;;;;;;4990830;28;20447;-46
2023/09/16 09:35:29;;;;;;;25.73;23.90;;;;;;;;;;4993713;28;20404;-46
2023/09/16 09:37:56;;;;;;;24.80;23.30;;;;;;;;;;4990157;28;20474;-46
2023/09/16 09:40:22;;;;;;;24.63;23.23;;;;;;;;;;4993815;28;20918;-46
2023/09/16 09:42:49;;;;;;;23.47;22.10;;;;;;;;;;4994336;28;20420;-46
2023/09/16 09:45:16;;;;;;;24.00;22.60;;;;;;;;;;4994074;28;20776;-47
2023/09/16 09:47:42;;;;;;;23.43;22.07;;;;;;;;;;4994367;28;20468;-46
2023/09/16 09:50:12;;;;;;;24.40;23.03;;;;;;;;;;4993660;28;20424;-46
2023/09/16 09:52:38;;;;;;;24.03;22.63;;;;;;;;;;4994340;28;20403;-46
2023/09/16 09:55:04;;;;;;;24.53;23.13;;;;;;;;;;4994271;28;20887;-45
2023/09/16 09:57:30;;;;;;;23.50;22.20;;;;;;;;;;4997756;28;20891;-46
2023/09/16 09:59:57;;;;;;;24.10;22.70;;;;;;;;;;4998991;28;20435;-46
2023/09/16 10:02:26;;;;;;;24.57;23.20;;;;;;;;;;5001254;28;20462;-46
2023/09/16 10:05:01;;;;;;;26.80;25.30;;;;;;;;;;4994205;28;20494;-46
2023/09/16 10:07:27;;;;;;;24.00;22.63;;;;;;;;;;4993856;28;20455;-45
2023/09/16 10:09:53;;;;;;;25.13;23.70;;;;;;;;;;4993507;28;20431;-46
2023/09/16 10:12:19;;;;;;;20.73;19.47;;;;;;;;;;4993773;28;20404;-47
2023/09/16 10:14:45;;;;;;;24.07;22.70;;;;;;;;;;4993804;28;20404;-46
2023/09/16 10:17:12;;;;;;;22.53;21.23;;;;;;;;;;4993693;28;20408;-47
2023/09/16 10:19:38;;;;;;;25.00;23.60;;;;;;;;;;4993079;28;20484;-46
2023/09/16 10:22:04;;;;;;;25.57;24.07;;;;;;;;;;4993334;28;20428;-46
2023/09/16 10:24:30;;;;;;;27.57;25.87;;;;;;;;;;4993193;28;20412;-47
2023/09/16 10:26:58;;;;;;;27.57;25.83;;;;;;;;;;4989915;28;20459;-46
2023/09/16 10:29:25;;;;;;;27.23;25.40;;;;;;;;;;4991435;28;20415;-46
2023/09/16 10:31:52;;;;;;;27.63;25.83;;;;;;;;;;4992496;28;20400;-47
2023/09/16 10:34:18;;;;;;;24.77;23.37;;;;;;;;;;4992066;28;20403;-46
2023/09/16 10:36:44;;;;;;;26.50;24.93;;;;;;;;;;4995379;28;20485;-45
2023/09/16 10:39:12;;;;;;;29.20;27.43;;;;;;;;;;4994264;28;20424;-46
2023/09/16 10:41:38;;;;;;;28.00;26.50;;;;;;;;;;4993486;28;20773;-47
2023/09/16 10:44:05;;;;;;;35.07;33.17;;;;;;;;;;4993104;28;20412;-46
2023/09/16 10:46:34;;;;;;;30.83;29.20;;;;;;;;;;4993038;28;20483;-46
2023/09/16 10:49:00;;;;;;;28.07;26.47;;;;;;;;;;4992660;28;20958;-45
2023/09/16 10:51:27;;;;;;;28.33;26.77;;;;;;;;;;4990249;28;20476;-46
2023/09/16 10:54:05;;;;;;;26.67;25.10;;;;;;;;;;4992745;28;20777;-47
2023/09/16 10:56:34;;;;;;;27.70;26.20;;;;;;;;;;4988230;28;20431;-47
2023/09/16 10:59:01;;;;;;;30.73;29.00;;;;;;;;;;4992608;28;20408;-46
2023/09/16 11:01:47;;;;;;;27.67;26.17;;;;;;;;;;4992759;28;20462;-46
2023/09/16 11:04:17;;;;;;;27.70;26.03;;;;;;;;;;4987107;28;20412;-46
2023/09/16 11:06:47;;;;;;;29.40;27.73;;;;;;;;;;4992549;28;20473;-47
2023/09/16 11:09:14;;;;;;;35.90;33.70;;;;;;;;;;4992441;28;20415;-46
2023/09/16 11:11:40;;;;;;;31.27;29.57;;;;;;;;;;4992618;28;20907;-46
2023/09/16 11:14:06;;;;;;;33.60;31.80;;;;;;;;;;4992571;28;20417;-46
2023/09/16 11:16:42;;;;;;;30.40;28.70;;;;;;;;;;4992522;28;20400;-46
2023/09/16 11:19:08;;;;;;;37.77;35.53;;;;;;;;;;4992286;28;20419;-47
2023/09/16 11:21:34;;;;;;;30.73;29.13;;;;;;;;;;4992975;28;20791;-45
2023/09/16 11:24:00;;;;;;;31.40;29.70;;;;;;;;;;4992720;28;20522;-46
2023/09/16 11:26:26;;;;;;;29.73;28.27;;;;;;;;;;4992365;28;20416;-46
2023/09/16 11:28:53;;;;;;;36.03;34.03;;;;;;;;;;4992293;28;20474;-46
2023/09/16 11:31:19;;;;;;;33.00;31.10;;;;;;;;;;4991914;28;20196;-45
2023/09/16 11:33:45;;;;;;;33.53;31.83;;;;;;;;;;4992372;28;20413;-46
2023/09/16 11:36:18;;;;;;;31.07;29.40;;;;;;;;;;4992437;28;20408;-46
2023/09/16 11:38:54;;;;;;;29.87;28.17;;;;;;;;;;4991947;28;20404;-46
2023/09/16 11:41:20;;;;;;;30.90;29.27;;;;;;;;;;4985825;28;20485;-45
2023/09/16 11:43:46;;;;;;;32.10;30.40;;;;;;;;;;4992159;28;20541;-46
2023/09/16 11:46:13;;;;;;;31.83;30.13;;;;;;;;;;4992177;28;20602;-46
2023/09/16 11:48:48;;;;;;;35.40;33.60;;;;;;;;;;4992119;28;20469;-46
2023/09/16 11:51:15;;;;;;;31.27;29.67;;;;;;;;;;4984710;28;20423;-47
2023/09/16 11:53:41;;;;;;;41.23;39.13;;;;;;;;;;4992086;28;20845;-46
2023/09/16 11:56:07;;;;;;;32.40;30.77;;;;;;;;;;4991989;28;20551;-46
2023/09/16 11:58:33;;;;;;;40.43;38.33;;;;;;;;;;4991839;28;20231;-46
2023/09/16 12:01:00;;;;;;;47.37;45.07;;;;;;;;;;4991782;28;20460;-47
2023/09/16 12:03:27;;;;;;;44.23;42.00;;;;;;;;;;4995436;28;20419;-46
2023/09/16 12:05:53;;;;;;;28.83;27.13;;;;;;;;;;4991058;28;20416;-46
2023/09/16 12:08:19;;;;;;;29.70;27.90;;;;;;;;;;4990125;28;20467;-46
2023/09/16 12:10:46;;;;;;;26.80;25.10;;;;;;;;;;4989863;28;20424;-46
2023/09/16 12:13:12;;;;;;;28.07;26.57;;;;;;;;;;4992053;28;20444;-47
2023/09/16 12:15:38;;;;;;;26.40;25.10;;;;;;;;;;4991531;28;20443;-45
2023/09/16 12:18:04;;;;;;;33.70;31.90;;;;;;;;;;4992039;28;20404;-46
2023/09/16 12:20:31;;;;;;;30.97;29.30;;;;;;;;;;4991385;28;20212;-46
2023/09/16 12:22:57;;;;;;;31.80;30.10;;;;;;;;;;4991858;28;20528;-45
2023/09/16 12:25:26;;;;;;;35.17;33.40;;;;;;;;;;4991386;28;20959;-46
2023/09/16 12:27:52;;;;;;;33.37;31.57;;;;;;;;;;4991808;28;20660;-46
2023/09/16 12:30:18;;;;;;;31.37;29.67;;;;;;;;;;4991449;28;20432;-46
2023/09/16 12:32:51;;;;;;;30.03;28.43;;;;;;;;;;4991799;28;20180;-47
2023/09/16 12:35:17;;;;;;;30.63;29.03;;;;;;;;;;4994740;28;20165;-46
2023/09/16 12:37:43;;;;;;;36.17;34.27;;;;;;;;;;4995193;28;20746;-46
2023/09/16 12:40:09;;;;;;;36.70;34.70;;;;;;;;;;4983362;28;20428;-47
2023/09/16 12:42:35;;;;;;;37.83;35.83;;;;;;;;;;4991850;28;20408;-46
2023/09/16 12:45:02;;;;;;;34.73;32.97;;;;;;;;;;4991655;28;20411;-46
2023/09/16 12:47:28;;;;;;;39.20;37.20;;;;;;;;;;4991652;28;20470;-46
2023/09/16 12:49:54;;;;;;;41.93;39.83;;;;;;;;;;4991676;28;20428;-46
2023/09/16 12:52:20;;;;;;;38.10;36.20;;;;;;;;;;4995278;28;20404;-46
2023/09/16 12:54:47;;;;;;;31.40;29.77;;;;;;;;;;4995131;28;20419;-46
2023/09/16 12:57:13;;;;;;;36.43;34.63;;;;;;;;;;4995271;28;20498;-46
2023/09/16 12:59:43;;;;;;;34.90;33.13;;;;;;;;;;4997941;28;20436;-46
2023/09/16 13:02:09;;;;;;;36.87;35.17;;;;;;;;;;4991800;28;20487;-46
2023/09/16 13:04:35;;;;;;;33.70;32.00;;;;;;;;;;4995235;28;20446;-46
2023/09/16 13:07:01;;;;;;;36.43;34.60;;;;;;;;;;4994936;28;20255;-46
2023/09/16 13:09:30;;;;;;;37.33;35.43;;;;;;;;;;4994680;28;20535;-47
2023/09/16 13:11:57;;;;;;;32.27;30.57;;;;;;;;;;4997910;28;20400;-46
2023/09/16 13:14:23;;;;;;;28.40;26.90;;;;;;;;;;4994983;28;20459;-47
2023/09/16 13:16:49;;;;;;;28.60;27.10;;;;;;;;;;4995040;28;20907;-46
2023/09/16 13:19:20;;;;;;;30.33;28.23;;;;;;;;;;4994506;28;20784;-46
2023/09/16 13:21:46;;;;;;;32.10;30.50;;;;;;;;;;4995032;28;20495;-46
2023/09/16 13:24:12;;;;;;;34.47;32.77;;;;;;;;;;4994855;28;20478;-46
2023/09/16 13:26:48;;;;;;;35.73;34.00;;;;;;;;;;4994666;28;20986;-46
2023/09/16 13:29:15;;;;;;;39.30;37.10;;;;;;;;;;4987169;28;20404;-46
2023/09/16 13:31:41;;;;;;;34.47;32.73;;;;;;;;;;4994701;28;20440;-46
2023/09/16 13:34:08;;;;;;;41.07;39.10;;;;;;;;;;4994586;28;20412;-47
2023/09/16 13:36:40;;;;;;;37.20;35.30;;;;;;;;;;4994445;28;20490;-46
2023/09/16 13:39:14;;;;;;;39.50;37.40;;;;;;;;;;4994142;28;20923;-46
2023/09/16 13:41:40;;;;;;;31.30;29.60;;;;;;;;;;4994466;28;20427;-46
2023/09/16 13:44:06;;;;;;;29.97;28.47;;;;;;;;;;4994366;28;20804;-47
2023/09/16 13:46:32;;;;;;;32.83;31.20;;;;;;;;;;4994382;28;20510;-46
2023/09/16 13:48:58;;;;;;;31.73;30.13;;;;;;;;;;4994060;28;20415;-46
2023/09/16 13:51:24;;;;;;;33.23;31.63;;;;;;;;;;4994055;28;20432;-46
2023/09/16 13:53:53;;;;;;;30.10;28.60;;;;;;;;;;4997024;28;20502;-45
2023/09/16 13:56:21;;;;;;;30.57;28.90;;;;;;;;;;4994308;28;20461;-46
2023/09/16 13:58:48;;;;;;;27.43;26.07;;;;;;;;;;4994027;28;20404;-46
2023/09/16 14:01:14;;;;;;;24.87;23.57;;;;;;;;;;4999763;28;20439;-46
2023/09/16 14:03:39;;;;;;;26.63;25.20;;;;;;;;;;4993968;28;20423;-47
2023/09/16 14:06:07;;;;;;;18.60;17.57;;;;;;;;;;4994302;28;20420;-46
2023/09/16 14:08:33;;;;;;;15.87;14.97;;;;;;;;;;4993802;28;20471;-46
2023/09/16 14:10:59;;;;;;;16.33;15.43;;;;;;;;;;4993693;28;20427;-46
2023/09/16 14:13:26;;;;;;;15.47;14.67;;;;;;;;;;4993857;28;20401;-46